sensor_id;sensor_type;location;lat;lon;timestamp;P1;durP1;ratioP1;P2;durP2;ratioP2
9964;SDS011;5023;53.554;9.964;2023-03-03T00:04:57;34.17;;;20.87;;
9964;SDS011;5023;53.554;9.964;2023-03-03T00:10:01;35.87;;;20.93;;
9964;SDS011;5023;53.554;9.964;2023-03-03T00:15:11;37.10;;;21.93;;
9964;SDS011;5023;53.554;9.964;2023-03-03T00:20:25;39.77;;;21.90;;
9964;SDS011;5023;53.554;9.964;2023-03-03T00:25:33;38.87;;;22.37;;
9964;SDS011;5023;53.554;9.964;2023-03-03T00:30:39;43.53;;;23.00;;
9964;SDS011;5023;53.554;9.964;2023-03-03T00:35:42;39.27;;;22.20;;
9964;SDS011;5023;53.554;9.964;2023-03-03T00:40:45;39.20;;;22.57;;
9964;SDS011;5023;53.554;9.964;2023-03-03T00:45:48;35.43;;;21.63;;
9964;SDS011;5023;53.554;9.964;2023-03-03T00:50:52;45.50;;;21.57;;
9964;SDS011;5023;53.554;9.964;2023-03-03T00:55:56;37.40;;;22.17;;
9964;SDS011;5023;53.554;9.964;2023-03-03T01:00:59;35.60;;;22.63;;
9964;SDS011;5023;53.554;9.964;2023-03-03T01:06:01;39.03;;;22.07;;
9964;SDS011;5023;53.554;9.964;2023-03-03T01:11:08;40.23;;;21.93;;
9964;SDS011;5023;53.554;9.964;2023-03-03T01:16:13;37.37;;;21.70;;
9964;SDS011;5023;53.554;9.964;2023-03-03T01:21:15;44.77;;;27.67;;
9964;SDS011;5023;53.554;9.964;2023-03-03T01:26:18;34.97;;;21.20;;
9964;SDS011;5023;53.554;9.964;2023-03-03T01:31:20;36.23;;;22.33;;
9964;SDS011;5023;53.554;9.964;2023-03-03T01:36:22;36.40;;;21.73;;
9964;SDS011;5023;53.554;9.964;2023-03-03T01:41:27;35.03;;;22.27;;
9964;SDS011;5023;53.554;9.964;2023-03-03T01:46:38;36.90;;;21.50;;
9964;SDS011;5023;53.554;9.964;2023-03-03T01:51:47;35.27;;;21.17;;
9964;SDS011;5023;53.554;9.964;2023-03-03T01:56:54;35.17;;;22.17;;
9964;SDS011;5023;53.554;9.964;2023-03-03T02:02:00;36.63;;;23.97;;
9964;SDS011;5023;53.554;9.964;2023-03-03T02:07:04;30.20;;;21.27;;
9964;SDS011;5023;53.554;9.964;2023-03-03T02:12:11;31.90;;;20.47;;
9964;SDS011;5023;53.554;9.964;2023-03-03T02:17:17;32.47;;;20.43;;
9964;SDS011;5023;53.554;9.964;2023-03-03T02:22:20;32.13;;;21.47;;
9964;SDS011;5023;53.554;9.964;2023-03-03T02:27:28;31.83;;;21.33;;
9964;SDS011;5023;53.554;9.964;2023-03-03T02:32:33;32.50;;;20.53;;
9964;SDS011;5023;53.554;9.964;2023-03-03T02:37:34;30.93;;;19.40;;
9964;SDS011;5023;53.554;9.964;2023-03-03T02:42:39;27.43;;;18.30;;
9964;SDS011;5023;53.554;9.964;2023-03-03T02:47:47;29.13;;;19.77;;
9964;SDS011;5023;53.554;9.964;2023-03-03T02:52:49;32.63;;;18.97;;
9964;SDS011;5023;53.554;9.964;2023-03-03T02:57:53;22.77;;;17.70;;
9964;SDS011;5023;53.554;9.964;2023-03-03T03:02:55;30.07;;;17.47;;
9964;SDS011;5023;53.554;9.964;2023-03-03T03:07:58;27.60;;;19.30;;
9964;SDS011;5023;53.554;9.964;2023-03-03T03:13:01;27.40;;;19.43;;
9964;SDS011;5023;53.554;9.964;2023-03-03T03:18:03;28.10;;;17.77;;
9964;SDS011;5023;53.554;9.964;2023-03-03T03:23:06;30.27;;;18.27;;
9964;SDS011;5023;53.554;9.964;2023-03-03T03:28:10;24.07;;;17.43;;
9964;SDS011;5023;53.554;9.964;2023-03-03T03:33:12;21.17;;;15.67;;
9964;SDS011;5023;53.554;9.964;2023-03-03T03:38:14;21.63;;;15.90;;
9964;SDS011;5023;53.554;9.964;2023-03-03T03:43:18;25.77;;;17.73;;
9964;SDS011;5023;53.554;9.964;2023-03-03T03:48:20;23.47;;;17.10;;
9964;SDS011;5023;53.554;9.964;2023-03-03T03:53:22;24.03;;;16.57;;
9964;SDS011;5023;53.554;9.964;2023-03-03T03:58:26;24.27;;;17.57;;
9964;SDS011;5023;53.554;9.964;2023-03-03T04:03:28;21.97;;;15.93;;
9964;SDS011;5023;53.554;9.964;2023-03-03T04:08:30;24.53;;;17.83;;
9964;SDS011;5023;53.554;9.964;2023-03-03T04:13:33;21.93;;;16.13;;
9964;SDS011;5023;53.554;9.964;2023-03-03T04:18:36;23.80;;;15.90;;
9964;SDS011;5023;53.554;9.964;2023-03-03T04:23:38;23.00;;;16.90;;
9964;SDS011;5023;53.554;9.964;2023-03-03T04:28:41;22.73;;;16.97;;
9964;SDS011;5023;53.554;9.964;2023-03-03T04:33:43;23.83;;;16.30;;
9964;SDS011;5023;53.554;9.964;2023-03-03T04:38:45;23.57;;;16.73;;
9964;SDS011;5023;53.554;9.964;2023-03-03T04:43:50;22.80;;;16.63;;
9964;SDS011;5023;53.554;9.964;2023-03-03T04:48:52;25.50;;;17.77;;
9964;SDS011;5023;53.554;9.964;2023-03-03T04:53:54;28.67;;;18.77;;
9964;SDS011;5023;53.554;9.964;2023-03-03T04:58:58;29.63;;;19.83;;
9964;SDS011;5023;53.554;9.964;2023-03-03T05:03:59;34.77;;;20.90;;
9964;SDS011;5023;53.554;9.964;2023-03-03T05:09:02;37.10;;;22.70;;
9964;SDS011;5023;53.554;9.964;2023-03-03T05:14:06;36.27;;;22.07;;
9964;SDS011;5023;53.554;9.964;2023-03-03T05:19:08;33.70;;;20.97;;
9964;SDS011;5023;53.554;9.964;2023-03-03T05:24:11;33.70;;;21.07;;
9964;SDS011;5023;53.554;9.964;2023-03-03T05:29:15;38.73;;;21.37;;
9964;SDS011;5023;53.554;9.964;2023-03-03T05:34:17;35.70;;;22.03;;
9964;SDS011;5023;53.554;9.964;2023-03-03T05:39:20;35.53;;;21.23;;
9964;SDS011;5023;53.554;9.964;2023-03-03T05:44:26;36.27;;;21.50;;
9964;SDS011;5023;53.554;9.964;2023-03-03T05:49:28;36.60;;;21.80;;
9964;SDS011;5023;53.554;9.964;2023-03-03T05:54:30;40.60;;;22.50;;
9964;SDS011;5023;53.554;9.964;2023-03-03T05:59:34;32.70;;;20.47;;
9964;SDS011;5023;53.554;9.964;2023-03-03T06:04:36;38.17;;;22.80;;
9964;SDS011;5023;53.554;9.964;2023-03-03T06:09:39;32.97;;;20.93;;
9964;SDS011;5023;53.554;9.964;2023-03-03T06:14:42;37.23;;;21.63;;
9964;SDS011;5023;53.554;9.964;2023-03-03T06:19:44;41.60;;;21.97;;
9964;SDS011;5023;53.554;9.964;2023-03-03T06:24:47;37.63;;;21.43;;
9964;SDS011;5023;53.554;9.964;2023-03-03T06:29:50;36.93;;;21.53;;
9964;SDS011;5023;53.554;9.964;2023-03-03T06:34:53;36.57;;;20.60;;
9964;SDS011;5023;53.554;9.964;2023-03-03T06:39:55;39.23;;;22.10;;
9964;SDS011;5023;53.554;9.964;2023-03-03T06:44:58;35.10;;;21.33;;
9964;SDS011;5023;53.554;9.964;2023-03-03T06:50:01;29.63;;;18.97;;
9964;SDS011;5023;53.554;9.964;2023-03-03T06:55:09;29.23;;;18.30;;
9964;SDS011;5023;53.554;9.964;2023-03-03T07:00:18;31.17;;;19.03;;
9964;SDS011;5023;53.554;9.964;2023-03-03T07:05:23;29.30;;;18.13;;
9964;SDS011;5023;53.554;9.964;2023-03-03T07:10:28;23.70;;;16.03;;
9964;SDS011;5023;53.554;9.964;2023-03-03T07:15:32;24.30;;;15.90;;
9964;SDS011;5023;53.554;9.964;2023-03-03T07:20:41;25.63;;;16.93;;
9964;SDS011;5023;53.554;9.964;2023-03-03T07:25:44;26.87;;;18.87;;
9964;SDS011;5023;53.554;9.964;2023-03-03T07:30:49;26.63;;;17.20;;
9964;SDS011;5023;53.554;9.964;2023-03-03T07:35:51;24.00;;;15.73;;
9964;SDS011;5023;53.554;9.964;2023-03-03T07:40:55;24.33;;;16.00;;
9964;SDS011;5023;53.554;9.964;2023-03-03T07:46:02;25.83;;;16.67;;
9964;SDS011;5023;53.554;9.964;2023-03-03T07:51:18;30.77;;;18.87;;
9964;SDS011;5023;53.554;9.964;2023-03-03T07:56:26;29.27;;;17.97;;
9964;SDS011;5023;53.554;9.964;2023-03-03T08:01:39;29.13;;;19.63;;
9964;SDS011;5023;53.554;9.964;2023-03-03T08:06:46;26.77;;;17.20;;
9964;SDS011;5023;53.554;9.964;2023-03-03T08:11:50;25.07;;;16.70;;
9964;SDS011;5023;53.554;9.964;2023-03-03T08:16:56;26.03;;;16.50;;
9964;SDS011;5023;53.554;9.964;2023-03-03T08:22:00;28.03;;;17.57;;
9964;SDS011;5023;53.554;9.964;2023-03-03T08:27:13;27.47;;;17.97;;
9964;SDS011;5023;53.554;9.964;2023-03-03T08:32:17;28.67;;;17.57;;
9964;SDS011;5023;53.554;9.964;2023-03-03T08:37:22;27.80;;;16.30;;
9964;SDS011;5023;53.554;9.964;2023-03-03T08:42:25;43.03;;;24.33;;
9964;SDS011;5023;53.554;9.964;2023-03-03T08:47:30;38.93;;;22.83;;
9964;SDS011;5023;53.554;9.964;2023-03-03T08:52:33;41.97;;;23.23;;
9964;SDS011;5023;53.554;9.964;2023-03-03T08:57:36;46.77;;;26.83;;
9964;SDS011;5023;53.554;9.964;2023-03-03T09:02:42;47.77;;;26.23;;
9964;SDS011;5023;53.554;9.964;2023-03-03T09:07:44;29.73;;;19.47;;
9964;SDS011;5023;53.554;9.964;2023-03-03T09:12:48;29.07;;;18.50;;
9964;SDS011;5023;53.554;9.964;2023-03-03T09:17:52;47.93;;;21.63;;
9964;SDS011;5023;53.554;9.964;2023-03-03T09:22:58;52.53;;;29.90;;
9964;SDS011;5023;53.554;9.964;2023-03-03T09:28:01;37.70;;;21.53;;
9964;SDS011;5023;53.554;9.964;2023-03-03T09:33:21;30.00;;;18.53;;
9964;SDS011;5023;53.554;9.964;2023-03-03T09:38:26;30.42;;;22.85;;
9964;SDS011;5023;53.554;9.964;2023-03-03T09:43:33;26.67;;;17.17;;
9964;SDS011;5023;53.554;9.964;2023-03-03T09:48:49;25.70;;;17.10;;
9964;SDS011;5023;53.554;9.964;2023-03-03T09:53:59;25.80;;;16.10;;
9964;SDS011;5023;53.554;9.964;2023-03-03T09:59:20;24.20;;;15.43;;
9964;SDS011;5023;53.554;9.964;2023-03-03T10:04:43;25.80;;;15.93;;
9964;SDS011;5023;53.554;9.964;2023-03-03T10:15:35;23.20;;;15.53;;
9964;SDS011;5023;53.554;9.964;2023-03-03T10:20:51;25.97;;;16.17;;
9964;SDS011;5023;53.554;9.964;2023-03-03T10:26:04;35.07;;;22.43;;
9964;SDS011;5023;53.554;9.964;2023-03-03T10:31:18;23.67;;;15.93;;
9964;SDS011;5023;53.554;9.964;2023-03-03T10:36:31;23.40;;;15.50;;
9964;SDS011;5023;53.554;9.964;2023-03-03T10:41:51;22.07;;;15.13;;
9964;SDS011;5023;53.554;9.964;2023-03-03T10:47:16;26.60;;;17.00;;
9964;SDS011;5023;53.554;9.964;2023-03-03T10:52:32;25.70;;;16.57;;
9964;SDS011;5023;53.554;9.964;2023-03-03T10:57:45;25.87;;;15.93;;
9964;SDS011;5023;53.554;9.964;2023-03-03T11:02:57;23.87;;;15.37;;
9964;SDS011;5023;53.554;9.964;2023-03-03T11:08:29;22.70;;;15.47;;
9964;SDS011;5023;53.554;9.964;2023-03-03T11:13:38;23.33;;;16.50;;
9964;SDS011;5023;53.554;9.964;2023-03-03T11:18:53;23.70;;;17.20;;
9964;SDS011;5023;53.554;9.964;2023-03-03T11:24:20;18.77;;;14.00;;
9964;SDS011;5023;53.554;9.964;2023-03-03T11:29:39;20.57;;;12.07;;
9964;SDS011;5023;53.554;9.964;2023-03-03T11:34:51;18.30;;;11.27;;
9964;SDS011;5023;53.554;9.964;2023-03-03T11:40:08;16.93;;;12.77;;
9964;SDS011;5023;53.554;9.964;2023-03-03T11:45:16;12.73;;;10.00;;
9964;SDS011;5023;53.554;9.964;2023-03-03T11:50:21;17.13;;;10.73;;
9964;SDS011;5023;53.554;9.964;2023-03-03T11:55:29;15.37;;;10.60;;
9964;SDS011;5023;53.554;9.964;2023-03-03T12:00:35;16.07;;;10.57;;
9964;SDS011;5023;53.554;9.964;2023-03-03T12:05:42;22.30;;;11.73;;
9964;SDS011;5023;53.554;9.964;2023-03-03T12:10:52;17.47;;;11.53;;
9964;SDS011;5023;53.554;9.964;2023-03-03T12:16:04;19.53;;;12.53;;
9964;SDS011;5023;53.554;9.964;2023-03-03T12:21:14;21.07;;;12.00;;
9964;SDS011;5023;53.554;9.964;2023-03-03T12:26:28;17.60;;;11.73;;
9964;SDS011;5023;53.554;9.964;2023-03-03T12:31:43;20.73;;;11.30;;
9964;SDS011;5023;53.554;9.964;2023-03-03T12:37:00;19.67;;;10.77;;
9964;SDS011;5023;53.554;9.964;2023-03-03T12:42:23;12.88;;;9.90;;
9964;SDS011;5023;53.554;9.964;2023-03-03T12:47:35;12.03;;;7.77;;
9964;SDS011;5023;53.554;9.964;2023-03-03T12:52:45;12.13;;;7.00;;
9964;SDS011;5023;53.554;9.964;2023-03-03T12:57:57;12.40;;;6.87;;
9964;SDS011;5023;53.554;9.964;2023-03-03T13:03:08;9.33;;;5.30;;
9964;SDS011;5023;53.554;9.964;2023-03-03T13:08:25;8.00;;;4.13;;
9964;SDS011;5023;53.554;9.964;2023-03-03T13:13:39;5.83;;;3.83;;
9964;SDS011;5023;53.554;9.964;2023-03-03T13:18:50;7.23;;;3.80;;
9964;SDS011;5023;53.554;9.964;2023-03-03T13:23:57;6.37;;;4.27;;
9964;SDS011;5023;53.554;9.964;2023-03-03T13:29:12;7.23;;;2.60;;
9964;SDS011;5023;53.554;9.964;2023-03-03T13:34:22;4.63;;;2.67;;
9964;SDS011;5023;53.554;9.964;2023-03-03T13:39:37;4.00;;;2.47;;
9964;SDS011;5023;53.554;9.964;2023-03-03T13:44:45;4.63;;;2.20;;
9964;SDS011;5023;53.554;9.964;2023-03-03T13:49:56;3.03;;;2.20;;
9964;SDS011;5023;53.554;9.964;2023-03-03T13:55:16;3.37;;;2.27;;
9964;SDS011;5023;53.554;9.964;2023-03-03T14:00:30;2.77;;;2.17;;
9964;SDS011;5023;53.554;9.964;2023-03-03T14:05:46;3.27;;;2.30;;
9964;SDS011;5023;53.554;9.964;2023-03-03T14:10:53;4.83;;;2.23;;
9964;SDS011;5023;53.554;9.964;2023-03-03T14:16:06;6.33;;;2.50;;
9964;SDS011;5023;53.554;9.964;2023-03-03T14:21:18;5.67;;;3.20;;
9964;SDS011;5023;53.554;9.964;2023-03-03T14:26:25;4.73;;;2.00;;
9964;SDS011;5023;53.554;9.964;2023-03-03T14:31:30;3.00;;;2.70;;
9964;SDS011;5023;53.554;9.964;2023-03-03T14:36:43;4.10;;;2.87;;
9964;SDS011;5023;53.554;9.964;2023-03-03T14:41:45;3.30;;;1.70;;
9964;SDS011;5023;53.554;9.964;2023-03-03T14:46:58;2.27;;;1.50;;
9964;SDS011;5023;53.554;9.964;2023-03-03T14:52:09;3.07;;;1.50;;
9964;SDS011;5023;53.554;9.964;2023-03-03T14:57:36;2.13;;;1.90;;
9964;SDS011;5023;53.554;9.964;2023-03-03T15:02:47;5.30;;;2.10;;
9964;SDS011;5023;53.554;9.964;2023-03-03T15:08:07;6.37;;;2.20;;
9964;SDS011;5023;53.554;9.964;2023-03-03T15:18:50;2.83;;;1.90;;
9964;SDS011;5023;53.554;9.964;2023-03-03T15:24:01;4.67;;;2.93;;
9964;SDS011;5023;53.554;9.964;2023-03-03T15:29:11;4.50;;;2.10;;
9964;SDS011;5023;53.554;9.964;2023-03-03T15:34:28;5.40;;;2.83;;
9964;SDS011;5023;53.554;9.964;2023-03-03T15:39:39;4.53;;;2.07;;
9964;SDS011;5023;53.554;9.964;2023-03-03T15:44:51;4.83;;;2.10;;
9964;SDS011;5023;53.554;9.964;2023-03-03T15:50:06;5.60;;;3.13;;
9964;SDS011;5023;53.554;9.964;2023-03-03T15:55:31;7.73;;;2.27;;
9964;SDS011;5023;53.554;9.964;2023-03-03T16:00:52;11.27;;;2.60;;
9964;SDS011;5023;53.554;9.964;2023-03-03T16:06:12;9.30;;;2.67;;
9964;SDS011;5023;53.554;9.964;2023-03-03T16:11:20;5.73;;;2.40;;
9964;SDS011;5023;53.554;9.964;2023-03-03T16:16:31;10.20;;;2.80;;
9964;SDS011;5023;53.554;9.964;2023-03-03T16:27:19;8.23;;;4.00;;
9964;SDS011;5023;53.554;9.964;2023-03-03T16:32:26;8.90;;;2.70;;
9964;SDS011;5023;53.554;9.964;2023-03-03T16:37:39;8.60;;;2.40;;
9964;SDS011;5023;53.554;9.964;2023-03-03T16:42:48;7.87;;;4.10;;
9964;SDS011;5023;53.554;9.964;2023-03-03T16:48:04;7.13;;;3.23;;
9964;SDS011;5023;53.554;9.964;2023-03-03T16:53:27;10.52;;;3.45;;
9964;SDS011;5023;53.554;9.964;2023-03-03T16:58:45;12.30;;;3.87;;
9964;SDS011;5023;53.554;9.964;2023-03-03T17:03:58;12.40;;;3.13;;
9964;SDS011;5023;53.554;9.964;2023-03-03T17:09:16;10.30;;;3.73;;
9964;SDS011;5023;53.554;9.964;2023-03-03T17:14:48;10.37;;;3.97;;
9964;SDS011;5023;53.554;9.964;2023-03-03T17:20:02;25.63;;;5.23;;
9964;SDS011;5023;53.554;9.964;2023-03-03T17:25:18;13.27;;;3.63;;
9964;SDS011;5023;53.554;9.964;2023-03-03T17:30:24;11.07;;;3.90;;
9964;SDS011;5023;53.554;9.964;2023-03-03T17:41:04;17.83;;;4.60;;
9964;SDS011;5023;53.554;9.964;2023-03-03T17:46:13;13.60;;;5.03;;
9964;SDS011;5023;53.554;9.964;2023-03-03T17:51:27;15.37;;;4.67;;
9964;SDS011;5023;53.554;9.964;2023-03-03T17:56:40;11.30;;;4.00;;
9964;SDS011;5023;53.554;9.964;2023-03-03T18:01:52;15.53;;;4.10;;
9964;SDS011;5023;53.554;9.964;2023-03-03T18:07:15;16.73;;;4.73;;
9964;SDS011;5023;53.554;9.964;2023-03-03T18:12:32;15.00;;;4.27;;
9964;SDS011;5023;53.554;9.964;2023-03-03T18:17:46;12.90;;;4.20;;
9964;SDS011;5023;53.554;9.964;2023-03-03T18:28:44;18.10;;;5.07;;
9964;SDS011;5023;53.554;9.964;2023-03-03T18:33:59;18.60;;;5.77;;
9964;SDS011;5023;53.554;9.964;2023-03-03T18:39:04;24.70;;;7.03;;
9964;SDS011;5023;53.554;9.964;2023-03-03T18:44:24;19.87;;;4.10;;
9964;SDS011;5023;53.554;9.964;2023-03-03T19:00:28;23.50;;;6.60;;
9964;SDS011;5023;53.554;9.964;2023-03-03T19:05:33;16.57;;;4.60;;
9964;SDS011;5023;53.554;9.964;2023-03-03T19:10:50;17.13;;;5.13;;
9964;SDS011;5023;53.554;9.964;2023-03-03T19:16:00;25.77;;;12.60;;
9964;SDS011;5023;53.554;9.964;2023-03-03T19:21:03;15.13;;;4.70;;
9964;SDS011;5023;53.554;9.964;2023-03-03T19:31:47;17.53;;;4.07;;
9964;SDS011;5023;53.554;9.964;2023-03-03T19:37:00;17.77;;;5.20;;
9964;SDS011;5023;53.554;9.964;2023-03-03T19:42:11;21.37;;;6.43;;
9964;SDS011;5023;53.554;9.964;2023-03-03T19:47:26;18.10;;;5.40;;
9964;SDS011;5023;53.554;9.964;2023-03-03T19:52:35;15.80;;;4.63;;
9964;SDS011;5023;53.554;9.964;2023-03-03T19:57:44;16.27;;;5.00;;
9964;SDS011;5023;53.554;9.964;2023-03-03T20:02:59;23.33;;;4.90;;
9964;SDS011;5023;53.554;9.964;2023-03-03T20:08:27;18.53;;;5.07;;
9964;SDS011;5023;53.554;9.964;2023-03-03T20:13:41;29.70;;;12.67;;
9964;SDS011;5023;53.554;9.964;2023-03-03T20:19:08;13.73;;;4.60;;
9964;SDS011;5023;53.554;9.964;2023-03-03T20:29:58;17.13;;;4.50;;
9964;SDS011;5023;53.554;9.964;2023-03-03T20:35:14;17.10;;;4.50;;
9964;SDS011;5023;53.554;9.964;2023-03-03T20:40:27;18.90;;;5.13;;
9964;SDS011;5023;53.554;9.964;2023-03-03T20:45:44;24.40;;;5.63;;
9964;SDS011;5023;53.554;9.964;2023-03-03T20:51:00;19.67;;;5.40;;
9964;SDS011;5023;53.554;9.964;2023-03-03T20:56:08;17.83;;;4.47;;
9964;SDS011;5023;53.554;9.964;2023-03-03T21:01:15;16.60;;;5.17;;
9964;SDS011;5023;53.554;9.964;2023-03-03T21:06:36;30.23;;;8.93;;
9964;SDS011;5023;53.554;9.964;2023-03-03T21:11:41;10.97;;;3.90;;
9964;SDS011;5023;53.554;9.964;2023-03-03T21:16:44;16.43;;;5.20;;
9964;SDS011;5023;53.554;9.964;2023-03-03T21:21:48;20.13;;;4.73;;
9964;SDS011;5023;53.554;9.964;2023-03-03T21:26:52;16.37;;;4.27;;
9964;SDS011;5023;53.554;9.964;2023-03-03T21:31:56;16.17;;;4.27;;
9964;SDS011;5023;53.554;9.964;2023-03-03T21:37:00;13.40;;;4.40;;
9964;SDS011;5023;53.554;9.964;2023-03-03T21:42:05;14.10;;;3.90;;
9964;SDS011;5023;53.554;9.964;2023-03-03T21:47:08;22.57;;;3.97;;
9964;SDS011;5023;53.554;9.964;2023-03-03T21:52:13;17.50;;;5.03;;
9964;SDS011;5023;53.554;9.964;2023-03-03T21:57:17;17.80;;;4.70;;
9964;SDS011;5023;53.554;9.964;2023-03-03T22:02:19;16.83;;;3.90;;
9964;SDS011;5023;53.554;9.964;2023-03-03T22:07:24;20.07;;;4.60;;
9964;SDS011;5023;53.554;9.964;2023-03-03T22:12:26;14.90;;;3.57;;
9964;SDS011;5023;53.554;9.964;2023-03-03T22:17:30;18.93;;;3.93;;
9964;SDS011;5023;53.554;9.964;2023-03-03T22:22:34;16.77;;;4.00;;
9964;SDS011;5023;53.554;9.964;2023-03-03T22:27:36;12.23;;;3.07;;
9964;SDS011;5023;53.554;9.964;2023-03-03T22:32:39;15.87;;;3.60;;
9964;SDS011;5023;53.554;9.964;2023-03-03T22:37:42;19.47;;;4.07;;
9964;SDS011;5023;53.554;9.964;2023-03-03T22:42:44;13.03;;;3.87;;
9964;SDS011;5023;53.554;9.964;2023-03-03T22:47:46;20.13;;;4.10;;
9964;SDS011;5023;53.554;9.964;2023-03-03T22:52:51;21.30;;;6.07;;
9964;SDS011;5023;53.554;9.964;2023-03-03T22:57:54;16.83;;;4.53;;
9964;SDS011;5023;53.554;9.964;2023-03-03T23:02:56;16.17;;;3.53;;
9964;SDS011;5023;53.554;9.964;2023-03-03T23:08:00;15.07;;;3.23;;
9964;SDS011;5023;53.554;9.964;2023-03-03T23:13:03;22.50;;;3.93;;
9964;SDS011;5023;53.554;9.964;2023-03-03T23:18:05;10.53;;;3.30;;
9964;SDS011;5023;53.554;9.964;2023-03-03T23:23:08;14.20;;;3.70;;
9964;SDS011;5023;53.554;9.964;2023-03-03T23:28:14;15.90;;;3.80;;
9964;SDS011;5023;53.554;9.964;2023-03-03T23:33:18;16.50;;;4.87;;
9964;SDS011;5023;53.554;9.964;2023-03-03T23:38:22;11.00;;;3.57;;
9964;SDS011;5023;53.554;9.964;2023-03-03T23:43:24;14.33;;;6.87;;
9964;SDS011;5023;53.554;9.964;2023-03-03T23:48:26;13.93;;;5.60;;
9964;SDS011;5023;53.554;9.964;2023-03-03T23:53:30;16.47;;;4.90;;
9964;SDS011;5023;53.554;9.964;2023-03-03T23:58:33;11.83;;;4.73;;
